createdAt,value
2022-11-12T00:00:56.368Z,72.67
2022-11-12T00:03:22.840Z,72.42
2022-11-12T00:05:50.599Z,72.95
2022-11-12T00:08:17.661Z,71.61
2022-11-12T00:10:45.011Z,71.46
2022-11-12T00:13:11.790Z,72.42
2022-11-12T00:15:38.254Z,71.47
2022-11-12T00:18:04.854Z,72.43
2022-11-12T00:20:31.388Z,71.94
2022-11-12T00:22:57.788Z,71.82
2022-11-12T00:25:24.417Z,72.81
2022-11-12T00:27:50.848Z,73.00
2022-11-12T00:30:17.281Z,72.57
2022-11-12T00:32:43.754Z,71.32
2022-11-12T00:35:13.671Z,71.13
2022-11-12T00:37:40.938Z,72.89
2022-11-12T00:40:08.447Z,72.14
2022-11-12T00:42:34.870Z,71.22
2022-11-12T00:45:01.349Z,71.26
2022-11-12T00:47:27.785Z,71.11
2022-11-12T00:49:54.209Z,72.60
2022-11-12T00:52:20.621Z,71.88
2022-11-12T00:54:47.046Z,71.09
2022-11-12T00:57:13.458Z,71.77
2022-11-12T00:59:39.900Z,71.80
2022-11-12T01:02:06.360Z,71.20
2022-11-12T01:04:33.169Z,72.85
2022-11-12T01:06:59.668Z,71.36
2022-11-12T01:09:26.404Z,72.23
2022-11-12T01:11:52.851Z,72.88
2022-11-12T01:14:19.280Z,72.00
2022-11-12T01:16:45.722Z,72.25
2022-11-12T01:19:13.608Z,72.03
2022-11-12T01:21:42.500Z,72.63
2022-11-12T01:24:10.000Z,71.65
2022-11-12T01:26:37.355Z,72.90
2022-11-12T01:29:04.591Z,70.80
2022-11-12T01:31:34.202Z,71.98
2022-11-12T01:34:04.862Z,72.73
2022-11-12T01:36:34.254Z,72.64
2022-11-12T01:39:00.987Z,72.15
2022-11-12T01:41:30.622Z,71.04
2022-11-12T01:44:30.162Z,71.90
2022-11-12T01:47:19.174Z,71.74
2022-11-12T01:50:19.292Z,71.80
2022-11-12T01:53:00.437Z,71.95
2022-11-12T01:55:31.771Z,71.64
2022-11-12T01:58:06.684Z,71.78
2022-11-12T02:00:33.114Z,71.00
2022-11-12T02:03:02.090Z,72.53
2022-11-12T02:05:30.834Z,72.67
2022-11-12T02:08:00.485Z,71.54
2022-11-12T02:10:27.790Z,71.85
2022-11-12T02:13:13.368Z,71.34
2022-11-12T02:15:41.079Z,71.28
2022-11-12T02:18:08.051Z,70.97
2022-11-12T02:20:36.384Z,72.63
2022-11-12T02:23:03.909Z,73.42
2022-11-12T02:25:30.588Z,71.43
2022-11-12T02:27:58.784Z,72.47
2022-11-12T02:30:51.539Z,72.90
2022-11-12T02:33:17.966Z,72.26
2022-11-12T02:35:44.375Z,72.95
2022-11-12T02:38:11.197Z,71.58
2022-11-12T02:40:37.735Z,72.39
2022-11-12T02:43:04.204Z,72.38
2022-11-12T02:45:32.022Z,72.80
2022-11-12T02:47:58.579Z,72.25
2022-11-12T02:50:25.024Z,73.29
2022-11-12T02:52:51.465Z,72.26
2022-11-12T02:55:18.044Z,73.21
2022-11-12T02:57:44.505Z,71.26
2022-11-12T03:00:13.113Z,71.77
2022-11-12T03:02:42.574Z,71.15
2022-11-12T03:05:12.148Z,71.53
2022-11-12T03:07:39.189Z,70.87
2022-11-12T03:10:06.506Z,72.52
2022-11-12T03:12:33.282Z,72.08
2022-11-12T03:14:59.724Z,71.82
2022-11-12T03:17:26.141Z,71.22
2022-11-12T03:19:52.516Z,71.35
2022-11-12T03:22:18.926Z,71.25
2022-11-12T03:24:45.377Z,70.71
2022-11-12T03:27:11.803Z,71.11
2022-11-12T03:29:38.242Z,71.18
2022-11-12T03:32:04.807Z,71.39
2022-11-12T03:34:31.180Z,71.05
2022-11-12T03:36:57.556Z,71.79
2022-11-12T03:39:23.990Z,73.26
2022-11-12T03:41:50.372Z,72.46
2022-11-12T03:44:16.769Z,74.11
2022-11-12T03:46:44.525Z,71.83
2022-11-12T03:49:11.123Z,72.59
2022-11-12T03:51:37.496Z,72.35
2022-11-12T03:54:04.148Z,72.72
2022-11-12T03:56:30.574Z,72.58
2022-11-12T03:58:56.964Z,72.21
2022-11-12T04:01:23.427Z,71.88
2022-11-12T04:03:49.936Z,71.42
2022-11-12T04:06:34.938Z,73.26
2022-11-12T04:09:01.423Z,72.30
2022-11-12T04:11:27.889Z,72.37
2022-11-12T04:13:54.313Z,72.82
2022-11-12T04:16:41.051Z,73.15
2022-11-12T04:19:30.551Z,73.05
2022-11-12T04:22:09.007Z,72.66
2022-11-12T04:25:01.473Z,72.63
2022-11-12T04:27:33.380Z,71.84
2022-11-12T04:30:19.372Z,72.48
2022-11-12T04:32:52.809Z,72.48
2022-11-12T04:35:19.244Z,73.28
2022-11-12T04:37:45.942Z,73.36
2022-11-12T04:40:35.257Z,74.08
2022-11-12T04:43:21.899Z,75.31
2022-11-12T04:45:51.207Z,76.35
2022-11-12T04:48:18.578Z,75.69
2022-11-12T04:51:31.085Z,77.34
2022-11-12T04:53:57.519Z,77.41
2022-11-12T04:56:23.985Z,77.33
2022-11-12T04:58:50.419Z,77.88
2022-11-12T05:01:16.878Z,78.77
2022-11-12T05:03:43.372Z,77.37
2022-11-12T05:06:28.165Z,78.23
2022-11-12T05:08:54.759Z,78.13
2022-11-12T05:11:21.306Z,78.04
2022-11-12T05:13:47.707Z,79.23
2022-11-12T05:16:14.210Z,79.85
2022-11-12T05:18:40.606Z,79.14
2022-11-12T05:21:26.995Z,79.88
2022-11-12T05:23:53.382Z,80.23
2022-11-12T05:26:19.948Z,80.14
2022-11-12T05:28:46.409Z,81.48
2022-11-12T05:31:12.794Z,81.22
2022-11-12T05:33:39.180Z,80.30
2022-11-12T05:36:05.815Z,80.08
2022-11-12T05:38:32.213Z,79.83
2022-11-12T05:40:58.600Z,79.53
2022-11-12T05:43:25.081Z,79.15
2022-11-12T05:45:51.470Z,79.16
2022-11-12T05:48:24.035Z,79.41
2022-11-12T05:51:11.836Z,79.40
2022-11-12T05:53:38.371Z,79.20
2022-11-12T05:56:06.454Z,78.93
2022-11-12T05:58:33.437Z,78.84
2022-11-12T06:00:59.976Z,78.81
2022-11-12T06:03:26.829Z,78.70
2022-11-12T06:05:53.254Z,77.89
2022-11-12T06:08:19.677Z,78.44
2022-11-12T06:10:50.050Z,78.61
2022-11-12T06:13:16.481Z,78.48
2022-11-12T06:15:42.906Z,78.49
2022-11-12T06:18:09.848Z,77.73
2022-11-12T06:20:36.491Z,78.81
2022-11-12T06:23:03.444Z,79.46
2022-11-12T06:25:30.195Z,78.81
2022-11-12T06:27:56.592Z,79.67
2022-11-12T06:30:25.825Z,79.86
2022-11-12T06:32:52.822Z,80.23
2022-11-12T06:35:19.936Z,79.62
2022-11-12T06:37:47.625Z,78.80
2022-11-12T06:40:14.104Z,78.35
2022-11-12T06:42:40.773Z,78.11
2022-11-12T06:45:07.724Z,78.32
2022-11-12T06:47:34.170Z,78.75
2022-11-12T06:50:00.697Z,78.83
2022-11-12T06:52:27.101Z,78.15
2022-11-12T06:54:53.514Z,77.17
2022-11-12T06:57:19.876Z,77.66
2022-11-12T06:59:46.252Z,77.41
2022-11-12T07:02:13.665Z,77.21
2022-11-12T07:04:40.096Z,77.07
2022-11-12T07:07:10.443Z,76.90
2022-11-12T07:09:37.327Z,76.32
2022-11-12T07:12:03.917Z,76.00
2022-11-12T07:14:30.405Z,76.68
2022-11-12T07:16:56.813Z,77.47
2022-11-12T07:19:23.216Z,76.56
2022-11-12T07:21:49.596Z,76.80
2022-11-12T07:24:16.028Z,77.20
2022-11-12T07:26:47.275Z,76.97
2022-11-12T07:29:24.878Z,76.98
2022-11-12T07:32:00.575Z,77.34
2022-11-12T07:34:26.991Z,77.53
2022-11-12T07:36:53.471Z,77.70
2022-11-12T07:39:19.883Z,77.79
2022-11-12T07:41:46.267Z,78.08
2022-11-12T07:44:12.661Z,78.12
2022-11-12T07:46:39.084Z,77.84
2022-11-12T07:49:05.595Z,78.57
2022-11-12T07:51:31.977Z,78.12
2022-11-12T07:53:59.966Z,78.24
2022-11-12T07:56:27.720Z,78.06
2022-11-12T07:58:54.433Z,78.18
2022-11-12T08:01:31.994Z,78.25
2022-11-12T08:04:03.008Z,78.18
2022-11-12T08:06:31.038Z,77.82
2022-11-12T08:08:59.529Z,78.69
2022-11-12T08:11:26.011Z,77.75
2022-11-12T08:13:52.609Z,77.79
2022-11-12T08:16:19.262Z,78.11
2022-11-12T08:18:46.120Z,77.82
2022-11-12T08:21:14.748Z,77.79
2022-11-12T08:23:41.657Z,77.31
2022-11-12T08:26:11.965Z,77.53
2022-11-12T08:28:39.329Z,77.71
2022-11-12T08:31:11.600Z,76.96
2022-11-12T08:33:38.874Z,77.51
2022-11-12T08:36:07.583Z,76.96
2022-11-12T08:38:34.542Z,77.44
2022-11-12T08:41:02.391Z,77.55
2022-11-12T08:43:28.802Z,77.36
2022-11-12T08:45:58.399Z,77.00
2022-11-12T08:48:25.706Z,76.50
2022-11-12T08:50:52.974Z,77.36
2022-11-12T08:53:22.416Z,77.69
2022-11-12T08:55:49.461Z,76.96
2022-11-12T08:58:16.022Z,77.57
2022-11-12T09:00:44.138Z,76.76
2022-11-12T09:03:15.909Z,77.80
2022-11-12T09:05:42.944Z,76.44
2022-11-12T09:08:12.114Z,76.96
2022-11-12T09:10:39.580Z,77.18
2022-11-12T09:13:06.274Z,78.65
2022-11-12T09:15:38.011Z,78.70
2022-11-12T09:18:07.830Z,77.34
2022-11-12T09:20:34.549Z,76.68
2022-11-12T09:23:04.013Z,76.99
2022-11-12T09:25:30.823Z,78.49
2022-11-12T09:27:57.251Z,76.77
2022-11-12T09:30:23.973Z,77.05
2022-11-12T09:32:50.493Z,76.99
2022-11-12T09:35:17.049Z,76.81
2022-11-12T09:37:43.521Z,77.00
2022-11-12T09:40:18.111Z,76.74
2022-11-12T09:42:48.049Z,78.01
2022-11-12T09:45:26.122Z,77.76
2022-11-12T09:48:06.698Z,76.98
2022-11-12T09:51:04.874Z,76.36
2022-11-12T09:53:57.740Z,75.76
2022-11-12T09:56:26.111Z,76.24
2022-11-12T09:58:53.836Z,75.89
2022-11-12T10:01:32.202Z,77.02
2022-11-12T10:04:27.624Z,77.44
2022-11-12T10:07:06.396Z,76.91
2022-11-12T10:09:56.297Z,76.93
2022-11-12T10:12:46.857Z,76.25
2022-11-12T10:15:59.953Z,78.42
2022-11-12T10:19:07.666Z,76.39
2022-11-12T10:22:02.014Z,76.53
2022-11-12T10:24:34.661Z,77.22
2022-11-12T10:27:02.550Z,76.65
2022-11-12T10:29:40.362Z,77.01
2022-11-12T10:32:15.236Z,76.82
2022-11-12T10:34:41.712Z,77.56
2022-11-12T10:37:20.386Z,79.16
2022-11-12T10:39:47.646Z,77.83
2022-11-12T10:42:16.720Z,79.53
2022-11-12T10:44:43.839Z,78.20
2022-11-12T10:47:16.411Z,79.76
2022-11-12T10:49:42.821Z,79.56
2022-11-12T10:52:24.101Z,79.79
2022-11-12T10:55:05.163Z,77.96
2022-11-12T10:57:31.613Z,79.08
2022-11-12T11:00:20.079Z,79.00
2022-11-12T11:02:54.336Z,78.23
2022-11-12T11:05:50.104Z,78.71
2022-11-12T11:08:35.915Z,77.52
2022-11-12T11:11:28.489Z,78.43
2022-11-12T11:13:57.574Z,78.13
2022-11-12T11:16:26.888Z,77.73
2022-11-12T11:18:59.448Z,78.84
2022-11-12T11:21:42.072Z,78.80
2022-11-12T11:24:32.749Z,79.37
2022-11-12T11:27:17.464Z,78.35
2022-11-12T11:29:59.006Z,78.22
2022-11-12T11:32:49.835Z,79.72
2022-11-12T11:35:48.201Z,79.00
2022-11-12T11:38:59.260Z,78.99
2022-11-12T11:41:34.500Z,79.04
2022-11-12T11:44:15.870Z,80.41
2022-11-12T11:46:42.346Z,78.83
2022-11-12T11:49:27.283Z,81.20
2022-11-12T11:52:18.484Z,80.69
2022-11-12T11:55:21.599Z,80.47
2022-11-12T11:58:00.337Z,78.93
2022-11-12T12:00:37.041Z,78.98
2022-11-12T12:03:17.921Z,80.47
2022-11-12T12:06:18.352Z,76.33
2022-11-12T12:08:59.993Z,78.13
2022-11-12T12:11:35.659Z,78.08
2022-11-12T12:14:36.791Z,78.78
2022-11-12T12:17:36.101Z,78.91
2022-11-12T12:20:14.523Z,79.86
2022-11-12T12:22:47.143Z,79.98
2022-11-12T12:25:28.159Z,78.84
2022-11-12T12:28:10.209Z,78.39
2022-11-12T12:30:40.249Z,79.32
2022-11-12T12:33:25.255Z,80.16
2022-11-12T12:36:13.856Z,80.13
2022-11-12T12:38:48.229Z,80.73
2022-11-12T12:41:20.808Z,80.58
2022-11-12T12:43:52.732Z,79.21
2022-11-12T12:46:24.079Z,79.58
2022-11-12T12:48:54.002Z,80.99
2022-11-12T12:51:21.732Z,80.08
2022-11-12T12:53:48.266Z,80.15
2022-11-12T12:56:14.660Z,79.07
2022-11-12T12:58:46.976Z,79.47
2022-11-12T13:01:22.522Z,80.49
2022-11-12T13:03:59.233Z,79.33
2022-11-12T13:06:29.169Z,79.36
2022-11-12T13:09:24.463Z,79.57
2022-11-12T13:12:05.427Z,80.04
2022-11-12T13:14:34.847Z,80.44
2022-11-12T13:17:07.150Z,80.64
2022-11-12T13:19:35.964Z,78.86
2022-11-12T13:22:17.941Z,79.02
2022-11-12T13:25:20.198Z,80.20
2022-11-12T13:27:47.051Z,79.31
2022-11-12T13:30:13.457Z,80.31
2022-11-12T13:32:49.723Z,79.75
2022-11-12T13:35:21.779Z,79.92
2022-11-12T13:38:00.841Z,79.15
2022-11-12T13:40:30.275Z,80.00
2022-11-12T13:43:18.592Z,79.29
2022-11-12T13:45:50.216Z,79.49
2022-11-12T13:48:40.810Z,79.03
2022-11-12T13:51:32.098Z,79.04
2022-11-12T13:53:58.961Z,80.07
2022-11-12T13:56:31.694Z,79.12
2022-11-12T13:59:18.388Z,79.34
2022-11-12T14:01:47.308Z,79.06
2022-11-12T14:04:16.663Z,79.77
2022-11-12T14:06:51.799Z,79.89
2022-11-12T14:09:36.969Z,80.02
2022-11-12T14:12:29.659Z,80.62
2022-11-12T14:15:15.083Z,79.71
2022-11-12T14:17:47.600Z,79.49
2022-11-12T14:20:39.671Z,79.58
2022-11-12T14:23:12.442Z,79.72
2022-11-12T14:25:50.656Z,80.53
2022-11-12T14:28:37.190Z,81.32
2022-11-12T14:31:04.893Z,79.93
2022-11-12T14:33:32.605Z,80.05
2022-11-12T14:36:05.244Z,79.70
2022-11-12T14:38:39.951Z,80.04
2022-11-12T14:41:15.874Z,80.25
2022-11-12T14:43:50.156Z,80.36
2022-11-12T14:46:23.495Z,81.00
2022-11-12T14:48:58.112Z,79.60
2022-11-12T14:51:29.475Z,80.36
2022-11-12T14:54:26.184Z,80.56
2022-11-12T14:56:53.057Z,78.60
2022-11-12T14:59:19.740Z,79.90
2022-11-12T15:02:48.916Z,79.96
2022-11-12T15:05:21.048Z,79.57
2022-11-12T15:07:51.901Z,78.07
2022-11-12T15:10:38.130Z,78.10
2022-11-12T15:13:15.380Z,77.77
2022-11-12T15:15:55.109Z,77.56
2022-11-12T15:18:27.444Z,78.91
2022-11-12T15:21:12.087Z,78.72
2022-11-12T15:24:04.795Z,78.83
2022-11-12T15:26:35.917Z,79.08
2022-11-12T15:29:36.124Z,76.72
2022-11-12T15:32:13.506Z,76.52
2022-11-12T15:34:40.785Z,78.23
2022-11-12T15:37:19.539Z,78.18
2022-11-12T15:39:52.816Z,77.19
2022-11-12T15:42:30.133Z,76.19
2022-11-12T15:45:09.650Z,76.35
2022-11-12T15:47:36.150Z,76.95
2022-11-12T15:50:15.337Z,75.74
2022-11-12T15:52:42.071Z,75.87
2022-11-12T15:55:09.417Z,76.07
2022-11-12T15:57:40.875Z,76.07
2022-11-12T16:00:15.471Z,76.86
2022-11-12T16:02:42.560Z,76.90
2022-11-12T16:05:16.731Z,75.83
2022-11-12T16:07:43.234Z,75.83
2022-11-12T16:10:17.334Z,75.95
2022-11-12T16:12:45.376Z,76.12
2022-11-12T16:15:20.716Z,76.01
2022-11-12T16:17:47.970Z,75.90
2022-11-12T16:20:31.127Z,75.44
2022-11-12T16:22:57.989Z,75.00
2022-11-12T16:25:29.750Z,75.00
2022-11-12T16:27:57.720Z,75.16
2022-11-12T16:30:30.198Z,75.34
2022-11-12T16:32:57.949Z,75.18
2022-11-12T16:35:25.597Z,75.28
2022-11-12T16:37:54.331Z,75.42
2022-11-12T16:40:27.222Z,75.71
2022-11-12T16:42:53.707Z,75.44
2022-11-12T16:45:23.783Z,75.28
2022-11-12T16:47:55.190Z,75.14
2022-11-12T16:50:24.847Z,75.09
2022-11-12T16:52:52.716Z,74.40
2022-11-12T16:55:20.318Z,74.66
2022-11-12T16:57:46.980Z,74.57
2022-11-12T17:00:16.104Z,74.87
2022-11-12T17:02:47.138Z,75.18
2022-11-12T17:05:21.234Z,74.97
2022-11-12T17:07:48.490Z,74.94
2022-11-12T17:10:16.305Z,75.30
2022-11-12T17:12:43.483Z,75.36
2022-11-12T17:15:10.281Z,75.28
2022-11-12T17:17:36.746Z,75.17
2022-11-12T17:20:03.543Z,75.14
2022-11-12T17:22:31.121Z,75.10
2022-11-12T17:24:57.601Z,75.29
2022-11-12T17:27:24.028Z,75.24
2022-11-12T17:29:50.493Z,75.28
2022-11-12T17:32:16.991Z,74.92
2022-11-12T17:34:43.498Z,74.93
2022-11-12T17:37:09.960Z,74.37
2022-11-12T17:39:36.382Z,74.44
2022-11-12T17:42:02.925Z,74.38
2022-11-12T17:44:29.438Z,74.13
2022-11-12T17:46:56.044Z,73.88
2022-11-12T17:49:22.525Z,74.25
2022-11-12T17:51:48.999Z,74.63
2022-11-12T17:54:15.456Z,74.61
2022-11-12T17:56:41.905Z,74.58
2022-11-12T17:59:08.997Z,74.23
2022-11-12T18:01:35.496Z,74.64
2022-11-12T18:04:02.012Z,73.49
2022-11-12T18:06:31.536Z,73.66
2022-11-12T18:09:04.718Z,73.78
2022-11-12T18:11:41.629Z,74.04
2022-11-12T18:14:08.869Z,73.35
2022-11-12T18:16:35.528Z,73.42
2022-11-12T18:19:02.178Z,73.14
2022-11-12T18:21:28.658Z,73.28
2022-11-12T18:23:55.047Z,73.53
2022-11-12T18:26:21.784Z,74.37
2022-11-12T18:28:52.711Z,74.26
2022-11-12T18:31:19.698Z,74.46
2022-11-12T18:33:46.104Z,73.74
2022-11-12T18:36:18.352Z,73.11
2022-11-12T18:38:46.803Z,73.71
2022-11-12T18:41:15.467Z,74.62
2022-11-12T18:43:41.936Z,74.77
2022-11-12T18:46:10.056Z,74.98
2022-11-12T18:48:37.863Z,74.48
2022-11-12T18:51:10.535Z,73.90
2022-11-12T18:53:38.453Z,73.61
2022-11-12T18:56:14.211Z,73.80
2022-11-12T18:58:41.129Z,73.73
2022-11-12T19:01:11.053Z,72.88
2022-11-12T19:03:37.745Z,73.42
2022-11-12T19:06:06.305Z,73.92
2022-11-12T19:08:33.638Z,73.87
2022-11-12T19:11:02.124Z,73.99
2022-11-12T19:13:29.587Z,74.74
2022-11-12T19:16:03.667Z,74.08
2022-11-12T19:18:30.518Z,74.58
2022-11-12T19:21:05.865Z,73.78
2022-11-12T19:23:33.164Z,73.67
2022-11-12T19:26:00.870Z,74.72
2022-11-12T19:28:27.736Z,75.65
2022-11-12T19:30:54.642Z,74.90
2022-11-12T19:33:21.260Z,75.34
2022-11-12T19:35:47.921Z,75.21
2022-11-12T19:38:15.278Z,75.21
2022-11-12T19:40:42.585Z,75.00
2022-11-12T19:43:09.081Z,74.40
2022-11-12T19:45:35.600Z,75.57
2022-11-12T19:48:02.931Z,75.57
2022-11-12T19:50:30.674Z,74.92
2022-11-12T19:52:57.371Z,75.59
2022-11-12T19:55:25.656Z,73.85
2022-11-12T19:57:52.091Z,74.16
2022-11-12T20:00:18.691Z,73.41
2022-11-12T20:02:45.156Z,73.71
2022-11-12T20:05:11.802Z,73.91
2022-11-12T20:07:38.374Z,74.02
2022-11-12T20:10:05.291Z,75.42
2022-11-12T20:12:32.945Z,75.49
2022-11-12T20:14:59.413Z,74.73
2022-11-12T20:17:25.878Z,76.10
2022-11-12T20:19:52.440Z,77.01
2022-11-12T20:22:18.869Z,76.04
2022-11-12T20:24:45.385Z,77.81
2022-11-12T20:27:11.870Z,78.59
2022-11-12T20:29:38.404Z,77.59
2022-11-12T20:32:05.364Z,78.19
2022-11-12T20:34:31.815Z,76.93
2022-11-12T20:36:58.228Z,77.56
2022-11-12T20:39:24.669Z,77.76
2022-11-12T20:41:51.212Z,78.29
2022-11-12T20:44:17.728Z,77.04
2022-11-12T20:46:44.154Z,77.36
2022-11-12T20:49:10.589Z,78.82
2022-11-12T20:51:37.065Z,78.00
2022-11-12T20:54:03.861Z,79.08
2022-11-12T20:56:30.835Z,79.03
2022-11-12T20:58:59.028Z,77.86
2022-11-12T21:01:27.498Z,77.29
2022-11-12T21:03:54.740Z,77.78
2022-11-12T21:06:23.845Z,78.06
2022-11-12T21:08:50.731Z,77.62
2022-11-12T21:11:19.591Z,78.09
2022-11-12T21:13:46.162Z,77.80
2022-11-12T21:16:14.052Z,77.99
2022-11-12T21:18:41.026Z,78.05
2022-11-12T21:21:10.544Z,78.48
2022-11-12T21:23:39.950Z,78.36
2022-11-12T21:26:17.813Z,78.34
2022-11-12T21:28:55.176Z,77.14
2022-11-12T21:31:26.206Z,78.58
2022-11-12T21:33:54.888Z,76.76
2022-11-12T21:36:22.547Z,77.70
2022-11-12T21:38:49.190Z,76.99
2022-11-12T21:41:18.967Z,76.11
2022-11-12T21:43:45.811Z,77.57
2022-11-12T21:46:17.954Z,76.18
2022-11-12T21:48:45.288Z,76.93
2022-11-12T21:51:16.652Z,77.57
2022-11-12T21:53:44.701Z,77.27
2022-11-12T21:56:13.981Z,78.39
2022-11-12T21:58:40.604Z,77.53
2022-11-12T22:01:16.563Z,77.65
2022-11-12T22:03:44.415Z,77.34
2022-11-12T22:06:11.331Z,78.23
2022-11-12T22:08:38.269Z,78.04
2022-11-12T22:11:10.442Z,77.69
2022-11-12T22:13:37.711Z,77.92
2022-11-12T22:16:15.712Z,77.12
2022-11-12T22:18:43.814Z,76.85
2022-11-12T22:21:13.435Z,76.96
2022-11-12T22:23:40.216Z,76.79
2022-11-12T22:26:12.425Z,76.67
2022-11-12T22:28:39.160Z,77.21
2022-11-12T22:31:12.044Z,77.35
2022-11-12T22:33:39.241Z,76.54
2022-11-12T22:36:08.885Z,75.98
2022-11-12T22:38:41.992Z,76.41
2022-11-12T22:41:11.086Z,75.66
2022-11-12T22:43:38.051Z,75.52
2022-11-12T22:46:10.824Z,76.12
2022-11-12T22:48:37.995Z,75.46
2022-11-12T22:51:07.478Z,76.23
2022-11-12T22:53:34.692Z,76.01
2022-11-12T22:56:03.070Z,77.17
2022-11-12T22:58:30.163Z,76.94
2022-11-12T23:00:57.140Z,77.10
2022-11-12T23:03:23.681Z,77.60
2022-11-12T23:05:56.821Z,77.18
2022-11-12T23:08:23.597Z,77.44
2022-11-12T23:10:50.103Z,78.13
2022-11-12T23:13:16.571Z,78.12
2022-11-12T23:15:44.519Z,77.78
2022-11-12T23:18:11.241Z,77.89
2022-11-12T23:20:37.997Z,77.24
2022-11-12T23:23:04.438Z,76.74
2022-11-12T23:25:33.734Z,77.11
2022-11-12T23:28:00.146Z,77.38
2022-11-12T23:30:26.606Z,77.61
2022-11-12T23:32:53.108Z,77.26
2022-11-12T23:35:19.661Z,77.26
2022-11-12T23:37:46.088Z,77.08
2022-11-12T23:40:12.523Z,77.31
2022-11-12T23:42:38.934Z,77.88
2022-11-12T23:45:05.942Z,77.80
2022-11-12T23:47:32.461Z,77.42
2022-11-12T23:49:58.847Z,77.05
2022-11-12T23:52:25.342Z,77.54
2022-11-12T23:54:51.743Z,77.89
2022-11-12T23:57:18.210Z,77.47
2022-11-12T23:59:44.788Z,78.04
